createdAt,value
2018-07-07T00:00:40.641Z,0.00
2018-07-07T00:01:40.637Z,0.00
2018-07-07T00:02:40.632Z,0.00
2018-07-07T00:03:40.633Z,0.00
2018-07-07T00:04:40.631Z,0.00
2018-07-07T00:05:40.625Z,0.00
2018-07-07T00:06:40.622Z,0.00
2018-07-07T00:07:40.618Z,0.00
2018-07-07T00:08:40.621Z,0.00
2018-07-07T00:09:40.617Z,0.00
2018-07-07T00:10:40.616Z,0.00
2018-07-07T00:11:40.617Z,0.00
2018-07-07T00:12:40.607Z,0.00
2018-07-07T00:13:40.605Z,0.00
2018-07-07T00:14:40.600Z,0.00
2018-07-07T00:15:40.598Z,0.00
2018-07-07T00:16:40.600Z,0.00
2018-07-07T00:17:40.597Z,0.00
2018-07-07T00:18:40.593Z,0.00
2018-07-07T00:19:40.589Z,0.00
2018-07-07T00:20:40.589Z,0.00
2018-07-07T00:21:40.581Z,0.00
2018-07-07T00:22:40.578Z,0.00
2018-07-07T00:23:40.577Z,0.00
2018-07-07T00:24:40.578Z,0.00
2018-07-07T00:25:40.577Z,0.00
2018-07-07T00:26:40.575Z,0.00
2018-07-07T00:27:40.570Z,0.00
2018-07-07T00:28:40.564Z,0.00
2018-07-07T00:29:40.560Z,0.00
2018-07-07T00:30:40.557Z,0.00
2018-07-07T00:31:40.559Z,0.00
2018-07-07T00:32:40.557Z,0.00
2018-07-07T00:33:40.554Z,0.00
2018-07-07T00:34:40.546Z,0.00
2018-07-07T00:35:40.545Z,0.00
2018-07-07T00:36:40.553Z,0.00
2018-07-07T00:37:40.543Z,0.00
2018-07-07T00:38:40.541Z,0.00
2018-07-07T00:39:40.538Z,0.00
2018-07-07T00:40:40.534Z,0.00
2018-07-07T00:41:40.533Z,0.00
2018-07-07T00:42:40.529Z,0.00
2018-07-07T00:43:40.525Z,0.00
2018-07-07T00:44:40.522Z,0.00
2018-07-07T00:45:40.522Z,0.00
2018-07-07T00:46:40.517Z,0.00
2018-07-07T00:47:40.517Z,0.00
2018-07-07T00:48:40.514Z,0.00
2018-07-07T00:49:40.507Z,0.00
2018-07-07T00:50:40.504Z,0.00
2018-07-07T00:51:40.503Z,0.00
2018-07-07T00:52:40.503Z,0.00
2018-07-07T00:53:40.492Z,0.00
2018-07-07T00:54:40.496Z,0.00
2018-07-07T00:55:40.493Z,0.00
2018-07-07T00:56:40.492Z,0.00
2018-07-07T00:57:40.483Z,0.00
2018-07-07T00:58:40.481Z,0.00
2018-07-07T00:59:40.482Z,0.00
2018-07-07T01:00:40.478Z,0.00
2018-07-07T01:01:40.477Z,0.00
2018-07-07T01:02:40.480Z,0.00
2018-07-07T01:03:40.471Z,0.00
2018-07-07T01:04:40.463Z,0.00
2018-07-07T01:05:40.463Z,0.00
2018-07-07T01:06:40.459Z,0.00
2018-07-07T01:07:40.461Z,0.00
2018-07-07T01:08:40.457Z,0.00
2018-07-07T01:09:40.452Z,0.00
2018-07-07T01:10:40.451Z,0.00
2018-07-07T01:11:40.448Z,0.00
2018-07-07T01:12:40.441Z,0.00
2018-07-07T01:13:40.443Z,0.00
2018-07-07T01:14:40.446Z,0.00
2018-07-07T01:15:40.438Z,0.00
2018-07-07T01:16:40.434Z,0.00
2018-07-07T01:17:40.438Z,0.00
2018-07-07T01:18:40.429Z,0.00
2018-07-07T01:19:40.432Z,0.00
2018-07-07T01:20:40.419Z,0.00
2018-07-07T01:21:40.414Z,0.00
2018-07-07T01:22:40.418Z,0.00
2018-07-07T01:23:40.414Z,0.00
2018-07-07T01:24:40.410Z,0.00
2018-07-07T01:25:40.412Z,0.00
2018-07-07T01:26:40.400Z,0.00
2018-07-07T01:27:40.422Z,0.00
2018-07-07T01:28:40.401Z,0.00
2018-07-07T01:29:40.395Z,0.00
2018-07-07T01:30:40.403Z,0.00
2018-07-07T01:31:40.390Z,0.00
2018-07-07T01:32:40.384Z,0.00
2018-07-07T01:33:40.382Z,0.00
2018-07-07T01:34:40.377Z,0.00
2018-07-07T01:35:40.380Z,0.00
2018-07-07T01:36:40.377Z,0.00
2018-07-07T01:37:40.377Z,0.00
2018-07-07T01:38:40.368Z,0.00
2018-07-07T01:39:40.363Z,0.00
2018-07-07T01:40:40.360Z,0.00
2018-07-07T01:41:40.357Z,0.00
2018-07-07T01:42:40.354Z,0.00
2018-07-07T01:43:40.359Z,0.00
2018-07-07T01:44:40.352Z,0.00
2018-07-07T01:45:40.348Z,0.00
2018-07-07T01:46:40.342Z,0.00
2018-07-07T01:47:40.340Z,0.00
2018-07-07T01:48:40.355Z,0.00
2018-07-07T01:49:40.332Z,0.00
2018-07-07T01:50:40.333Z,0.00
2018-07-07T01:51:40.325Z,0.00
2018-07-07T01:52:40.326Z,0.00
2018-07-07T01:53:40.324Z,0.00
2018-07-07T01:54:40.318Z,0.00
2018-07-07T01:55:40.321Z,0.00
2018-07-07T01:56:40.351Z,0.00
2018-07-07T01:57:40.311Z,0.00
2018-07-07T01:58:40.307Z,0.00
2018-07-07T01:59:40.305Z,0.00
2018-07-07T02:00:40.311Z,0.00
2018-07-07T02:01:40.296Z,0.00
2018-07-07T02:02:40.295Z,0.00
2018-07-07T02:03:40.291Z,0.00
2018-07-07T02:04:40.301Z,0.00
2018-07-07T02:05:40.286Z,0.00
2018-07-07T02:06:40.286Z,0.00
2018-07-07T02:07:40.281Z,0.00
2018-07-07T02:08:40.277Z,0.00
2018-07-07T02:09:40.271Z,0.00
2018-07-07T02:10:40.269Z,0.00
2018-07-07T02:11:40.282Z,0.00
2018-07-07T02:12:40.269Z,0.00
2018-07-07T02:13:40.263Z,0.00
2018-07-07T02:14:40.262Z,0.00
2018-07-07T02:15:40.255Z,0.00
2018-07-07T02:16:40.253Z,0.00
2018-07-07T02:17:40.259Z,0.00
2018-07-07T02:18:40.300Z,0.00
2018-07-07T02:19:40.248Z,0.00
2018-07-07T02:20:40.243Z,0.00
2018-07-07T02:21:40.240Z,0.00
2018-07-07T02:22:40.234Z,0.00
2018-07-07T02:23:40.229Z,0.00
2018-07-07T02:24:40.229Z,0.00
2018-07-07T02:25:40.228Z,0.00
2018-07-07T02:26:40.226Z,0.00
2018-07-07T02:27:40.222Z,0.00
2018-07-07T02:28:40.220Z,0.00
2018-07-07T02:29:40.210Z,0.00
2018-07-07T02:30:41.934Z,0.00
2018-07-07T02:31:40.208Z,0.00
2018-07-07T02:32:40.203Z,0.00
2018-07-07T02:33:40.203Z,0.00
2018-07-07T02:34:40.200Z,0.00
2018-07-07T02:35:40.196Z,0.00
2018-07-07T02:36:40.195Z,0.00
2018-07-07T02:37:40.187Z,0.00
2018-07-07T02:38:40.185Z,0.00
2018-07-07T02:39:40.186Z,0.00
2018-07-07T02:40:40.185Z,0.00
2018-07-07T02:41:48.158Z,0.00
2018-07-07T02:43:33.798Z,0.00
2018-07-07T02:44:33.760Z,0.00
2018-07-07T02:46:27.588Z,0.00
2018-07-07T02:47:35.296Z,0.00
2018-07-07T02:49:28.843Z,0.00
2018-07-07T02:50:20.974Z,0.00
2018-07-07T02:51:20.969Z,0.00
2018-07-07T02:52:20.967Z,0.00
2018-07-07T02:53:20.964Z,0.00
2018-07-07T02:54:20.963Z,0.00
2018-07-07T02:55:20.965Z,0.00
2018-07-07T02:56:20.959Z,0.00
2018-07-07T02:57:20.956Z,0.00
2018-07-07T02:58:28.784Z,0.00
2018-07-07T03:00:22.666Z,0.00
2018-07-07T03:01:22.801Z,0.00
2018-07-07T03:03:08.358Z,0.00
2018-07-07T03:04:16.284Z,0.00
2018-07-07T03:06:09.752Z,5.63
2018-07-07T03:07:09.820Z,5.63
2018-07-07T03:09:03.590Z,5.63
2018-07-07T03:10:03.506Z,5.63
2018-07-07T03:11:49.098Z,5.63
2018-07-07T03:12:57.120Z,5.63
2018-07-07T03:14:42.642Z,11.25
2018-07-07T03:15:50.451Z,11.25
2018-07-07T03:17:36.127Z,11.25
2018-07-07T03:18:44.031Z,16.88
2018-07-07T03:20:31.080Z,16.88
2018-07-07T03:21:30.870Z,16.88
2018-07-07T03:23:24.550Z,22.50
2018-07-07T03:24:24.519Z,22.50
2018-07-07T03:26:18.109Z,22.50
2018-07-07T03:27:18.074Z,28.13
2018-07-07T03:29:11.742Z,28.13
2018-07-07T03:30:11.712Z,28.13
2018-07-07T03:31:11.711Z,33.75
2018-07-07T03:32:11.709Z,33.75
2018-07-07T03:33:11.704Z,33.75
2018-07-07T03:34:11.697Z,39.38
2018-07-07T03:35:11.696Z,39.38
2018-07-07T03:36:11.692Z,39.38
2018-07-07T03:37:11.689Z,45.00
2018-07-07T03:38:11.688Z,45.00
2018-07-07T03:39:11.681Z,45.00
2018-07-07T03:40:11.677Z,50.63
2018-07-07T03:41:11.680Z,50.63
2018-07-07T03:42:11.715Z,50.63
2018-07-07T03:43:11.668Z,50.63
2018-07-07T03:44:11.669Z,56.25
2018-07-07T03:45:11.663Z,56.25
2018-07-07T03:46:11.675Z,56.25
2018-07-07T03:47:11.651Z,56.25
2018-07-07T03:48:11.648Z,61.88
2018-07-07T03:49:11.691Z,61.88
2018-07-07T03:50:11.642Z,67.50
2018-07-07T03:51:11.652Z,67.50
2018-07-07T03:52:11.651Z,67.50
2018-07-07T03:53:11.633Z,73.13
2018-07-07T03:54:11.627Z,73.13
2018-07-07T03:55:11.629Z,73.13
2018-07-07T03:56:11.626Z,78.75
2018-07-07T03:57:11.622Z,84.38
2018-07-07T03:58:11.621Z,90.00
2018-07-07T03:59:11.615Z,95.63
2018-07-07T04:00:11.605Z,101.25
2018-07-07T04:01:11.605Z,106.88
2018-07-07T04:02:11.624Z,112.50
2018-07-07T04:03:11.598Z,118.13
2018-07-07T04:04:11.598Z,118.13
2018-07-07T04:05:11.597Z,123.75
2018-07-07T04:06:11.592Z,123.75
2018-07-07T04:07:11.606Z,129.38
2018-07-07T04:08:11.580Z,135.00
2018-07-07T04:09:11.582Z,135.00
2018-07-07T04:10:11.579Z,140.63
2018-07-07T04:11:11.581Z,140.63
2018-07-07T04:12:11.572Z,146.25
2018-07-07T04:13:11.567Z,146.25
2018-07-07T04:14:11.567Z,151.88
2018-07-07T04:15:11.563Z,157.50
2018-07-07T04:16:11.556Z,157.50
2018-07-07T04:17:11.552Z,168.75
2018-07-07T04:18:11.550Z,168.75
2018-07-07T04:19:11.547Z,174.38
2018-07-07T04:20:11.591Z,174.38
2018-07-07T04:21:11.546Z,174.38
2018-07-07T04:22:11.532Z,180.00
2018-07-07T04:23:11.530Z,180.00
2018-07-07T04:24:11.528Z,185.63
2018-07-07T04:25:11.527Z,196.88
2018-07-07T04:26:11.524Z,196.88
2018-07-07T04:27:11.521Z,196.88
2018-07-07T04:28:11.517Z,202.50
2018-07-07T04:29:11.514Z,208.13
2018-07-07T04:30:11.509Z,213.75
2018-07-07T04:31:11.505Z,213.75
2018-07-07T04:32:11.505Z,219.38
2018-07-07T04:33:11.502Z,225.00
2018-07-07T04:34:11.500Z,225.00
2018-07-07T04:35:11.492Z,230.63
2018-07-07T04:36:11.485Z,236.25
2018-07-07T04:37:11.483Z,241.88
2018-07-07T04:38:11.493Z,247.50
2018-07-07T04:39:11.481Z,253.13
2018-07-07T04:40:11.472Z,258.75
2018-07-07T04:41:11.472Z,258.75
2018-07-07T04:42:11.477Z,270.00
2018-07-07T04:43:11.463Z,270.00
2018-07-07T04:44:11.462Z,275.63
2018-07-07T04:45:11.460Z,281.25
2018-07-07T04:46:11.465Z,286.88
2018-07-07T04:47:11.454Z,292.50
2018-07-07T04:48:11.452Z,298.13
2018-07-07T04:49:11.449Z,303.75
2018-07-07T04:50:11.441Z,303.75
2018-07-07T04:51:11.436Z,309.38
2018-07-07T04:52:11.434Z,309.38
2018-07-07T04:53:11.433Z,315.00
2018-07-07T04:54:11.432Z,320.63
2018-07-07T04:55:11.431Z,320.63
2018-07-07T04:56:11.422Z,326.25
2018-07-07T04:57:11.425Z,331.88
2018-07-07T04:58:11.414Z,337.50
2018-07-07T04:59:11.413Z,343.13
2018-07-07T05:00:11.410Z,343.13
2018-07-07T05:01:11.413Z,348.75
2018-07-07T05:02:11.409Z,354.38
2018-07-07T05:03:11.403Z,360.00
2018-07-07T05:04:11.396Z,365.63
2018-07-07T05:05:11.397Z,371.25
2018-07-07T05:06:11.392Z,371.25
2018-07-07T05:07:11.390Z,376.88
2018-07-07T05:08:11.387Z,376.88
2018-07-07T05:09:11.386Z,382.50
2018-07-07T05:10:11.384Z,382.50
2018-07-07T05:11:11.378Z,393.75
2018-07-07T05:12:11.373Z,388.13
2018-07-07T05:13:11.370Z,393.75
2018-07-07T05:14:11.370Z,399.38
2018-07-07T05:15:11.373Z,399.38
2018-07-07T05:16:11.365Z,405.00
2018-07-07T05:17:11.428Z,410.63
2018-07-07T05:18:11.362Z,416.25
2018-07-07T05:19:11.353Z,421.88
2018-07-07T05:20:11.353Z,421.88
2018-07-07T05:21:11.348Z,427.50
2018-07-07T05:22:11.350Z,433.13
2018-07-07T05:23:11.349Z,444.38
2018-07-07T05:24:11.345Z,455.63
2018-07-07T05:25:11.343Z,500.63
2018-07-07T05:26:11.339Z,680.63
2018-07-07T05:27:11.333Z,1085.63
2018-07-07T05:28:11.334Z,1355.63
2018-07-07T05:29:11.335Z,1395.00
2018-07-07T05:30:11.335Z,1507.50
2018-07-07T05:31:11.327Z,1620.00
2018-07-07T05:32:11.336Z,1743.75
2018-07-07T05:33:11.321Z,1704.38
2018-07-07T05:34:11.317Z,1726.88
2018-07-07T05:35:11.315Z,1676.25
2018-07-07T05:36:11.317Z,1676.25
2018-07-07T05:37:11.362Z,1856.25
2018-07-07T05:38:11.312Z,1991.25
2018-07-07T05:39:11.313Z,1963.13
2018-07-07T05:40:11.305Z,1946.25
2018-07-07T05:41:11.304Z,1957.50
2018-07-07T05:42:11.302Z,2053.13
2018-07-07T05:43:11.301Z,2182.50
2018-07-07T05:44:11.305Z,2008.13
2018-07-07T05:45:11.296Z,1822.50
2018-07-07T05:46:11.300Z,1845.00
2018-07-07T05:47:11.295Z,1985.63
2018-07-07T05:48:11.294Z,2036.25
2018-07-07T05:49:11.294Z,1974.38
2018-07-07T05:50:11.295Z,1985.63
2018-07-07T05:51:11.294Z,2030.63
2018-07-07T05:52:11.291Z,2115.00
2018-07-07T05:53:11.293Z,2266.88
2018-07-07T05:54:11.287Z,2458.13
2018-07-07T05:55:11.287Z,2548.13
2018-07-07T05:56:11.287Z,2587.50
2018-07-07T05:57:11.291Z,2700.00
2018-07-07T05:58:11.290Z,2711.25
2018-07-07T05:59:11.292Z,2593.13
2018-07-07T06:00:12.090Z,2435.63
2018-07-07T06:01:11.289Z,2610.00
2018-07-07T06:02:11.288Z,2733.75
2018-07-07T06:03:11.292Z,2818.13
2018-07-07T06:04:11.298Z,2925.00
2018-07-07T06:05:11.293Z,2941.88
2018-07-07T06:06:11.291Z,2925.00
2018-07-07T06:07:11.295Z,2750.63
2018-07-07T06:08:11.292Z,2610.00
2018-07-07T06:09:11.291Z,2677.50
2018-07-07T06:10:11.292Z,2823.75
2018-07-07T06:11:11.297Z,3026.25
2018-07-07T06:12:11.299Z,3105.00
2018-07-07T06:13:11.300Z,3031.88
2018-07-07T06:14:11.302Z,2941.88
2018-07-07T06:15:11.307Z,2925.00
2018-07-07T06:16:11.301Z,3105.00
2018-07-07T06:17:11.302Z,3223.13
2018-07-07T06:18:11.317Z,3206.25
2018-07-07T06:19:11.311Z,3425.63
2018-07-07T06:20:11.313Z,3633.75
2018-07-07T06:21:11.314Z,3476.25
2018-07-07T06:22:11.314Z,3346.88
2018-07-07T06:23:11.318Z,3262.50
2018-07-07T06:24:11.320Z,3330.00
2018-07-07T06:25:11.327Z,3465.00
2018-07-07T06:26:11.333Z,3330.00
2018-07-07T06:27:11.328Z,3279.38
2018-07-07T06:28:11.323Z,3414.38
2018-07-07T06:29:11.332Z,3487.50
2018-07-07T06:30:11.333Z,3560.63
2018-07-07T06:31:11.339Z,3841.88
2018-07-07T06:32:11.337Z,3768.75
2018-07-07T06:33:11.341Z,3285.00
2018-07-07T06:34:11.353Z,2587.50
2018-07-07T06:35:11.348Z,1828.13
2018-07-07T06:36:11.351Z,1603.13
2018-07-07T06:37:11.358Z,1546.88
2018-07-07T06:38:11.381Z,1513.13
2018-07-07T06:39:11.363Z,1518.75
2018-07-07T06:40:11.367Z,1496.25
2018-07-07T06:41:11.367Z,1501.88
2018-07-07T06:42:11.370Z,1501.88
2018-07-07T06:43:11.381Z,1507.50
2018-07-07T06:44:11.376Z,1530.00
2018-07-07T06:45:11.379Z,1541.25
2018-07-07T06:46:11.383Z,1563.75
2018-07-07T06:47:11.390Z,1603.13
2018-07-07T06:48:11.394Z,1743.75
2018-07-07T06:49:11.398Z,2334.38
2018-07-07T06:50:11.403Z,3448.13
2018-07-07T06:51:11.405Z,3723.75
2018-07-07T06:52:11.407Z,3813.75
2018-07-07T06:53:11.414Z,3712.50
2018-07-07T06:54:11.420Z,3639.38
2018-07-07T06:55:11.425Z,3948.75
2018-07-07T06:56:11.427Z,4083.75
2018-07-07T06:57:11.435Z,4393.13
2018-07-07T06:58:11.441Z,4545.00
2018-07-07T06:59:11.441Z,4477.50
2018-07-07T07:00:11.447Z,4595.63
2018-07-07T07:01:11.493Z,4567.50
2018-07-07T07:02:11.458Z,4381.88
2018-07-07T07:03:11.464Z,3515.63
2018-07-07T07:04:11.466Z,3155.63
2018-07-07T07:05:11.468Z,3403.13
2018-07-07T07:06:11.476Z,4466.25
2018-07-07T07:07:11.486Z,4522.50
2018-07-07T07:08:11.489Z,4758.75
2018-07-07T07:09:11.492Z,4753.13
2018-07-07T07:10:11.497Z,4921.88
2018-07-07T07:11:11.501Z,5214.38
2018-07-07T07:12:11.508Z,4972.50
2018-07-07T07:13:11.508Z,4876.88
2018-07-07T07:14:11.515Z,5152.50
2018-07-07T07:15:11.520Z,5163.75
2018-07-07T07:16:11.529Z,5051.25
2018-07-07T07:17:11.529Z,4590.00
2018-07-07T07:18:11.537Z,4100.63
2018-07-07T07:19:11.543Z,4044.38
2018-07-07T07:20:11.562Z,4792.50
2018-07-07T07:21:11.557Z,4950.00
2018-07-07T07:22:11.558Z,5287.50
2018-07-07T07:23:11.569Z,5360.63
2018-07-07T07:24:11.573Z,5422.50
2018-07-07T07:25:11.578Z,5596.88
2018-07-07T07:26:11.744Z,5523.75
2018-07-07T07:27:11.593Z,4758.75
2018-07-07T07:28:11.597Z,2553.75
2018-07-07T07:29:11.597Z,4730.63
2018-07-07T07:30:11.608Z,6238.13
2018-07-07T07:31:12.153Z,6300.00
2018-07-07T07:32:11.620Z,2863.13
2018-07-07T07:33:11.626Z,5343.75
2018-07-07T07:34:11.627Z,6108.75
2018-07-07T07:35:11.641Z,6018.75
2018-07-07T07:36:11.639Z,3723.75
2018-07-07T07:37:11.650Z,4128.75
2018-07-07T07:38:11.661Z,5231.25
2018-07-07T07:39:11.666Z,4815.00
2018-07-07T07:40:11.671Z,4995.00
2018-07-07T07:41:11.670Z,4865.63
2018-07-07T07:42:11.678Z,5394.38
2018-07-07T07:43:11.687Z,5377.50
2018-07-07T07:44:11.700Z,5231.25
2018-07-07T07:45:11.702Z,5270.63
2018-07-07T07:46:11.709Z,933.75
2018-07-07T07:47:11.715Z,916.88
2018-07-07T07:48:11.717Z,905.63
2018-07-07T07:49:11.723Z,933.75
2018-07-07T07:50:11.753Z,956.25
2018-07-07T07:51:11.740Z,945.00
2018-07-07T07:52:11.745Z,1018.13
2018-07-07T07:53:11.753Z,1873.13
2018-07-07T07:54:11.757Z,1687.50
2018-07-07T07:55:11.765Z,2356.88
2018-07-07T07:56:11.766Z,1991.25
2018-07-07T07:57:11.774Z,2565.00
2018-07-07T07:58:11.781Z,4545.00
2018-07-07T07:59:11.789Z,5000.63
2018-07-07T08:00:11.792Z,5450.63
2018-07-07T08:01:11.801Z,5276.25
2018-07-07T08:02:11.806Z,5248.13
2018-07-07T08:03:11.830Z,5377.50
2018-07-07T08:04:11.833Z,5208.75
2018-07-07T08:05:11.825Z,5439.38
2018-07-07T08:06:11.829Z,5715.00
2018-07-07T08:07:11.834Z,3656.25
2018-07-07T08:08:11.838Z,5433.75
2018-07-07T08:09:11.842Z,5101.88
2018-07-07T08:10:11.850Z,4899.38
2018-07-07T08:11:11.857Z,5130.00
2018-07-07T08:12:11.863Z,5585.63
2018-07-07T08:13:11.869Z,5833.13
2018-07-07T08:14:11.910Z,5923.13
2018-07-07T08:15:11.882Z,6114.38
2018-07-07T08:16:11.885Z,6277.50
2018-07-07T08:17:11.892Z,6305.63
2018-07-07T08:18:11.899Z,6165.00
2018-07-07T08:19:11.977Z,6058.13
2018-07-07T08:20:11.910Z,6001.88
2018-07-07T08:21:11.919Z,6069.38
2018-07-07T08:22:11.929Z,6193.13
2018-07-07T08:23:11.937Z,6255.00
2018-07-07T08:24:11.947Z,6075.00
2018-07-07T08:25:11.947Z,5619.38
2018-07-07T08:26:11.953Z,5096.25
2018-07-07T08:27:11.962Z,5349.38
2018-07-07T08:28:11.970Z,5844.38
2018-07-07T08:29:11.976Z,6001.88
2018-07-07T08:30:11.979Z,6013.13
2018-07-07T08:31:11.988Z,5866.88
2018-07-07T08:32:11.997Z,5692.50
2018-07-07T08:33:12.006Z,5771.25
2018-07-07T08:34:12.015Z,5737.50
2018-07-07T08:35:12.021Z,5715.00
2018-07-07T08:36:12.034Z,5861.25
2018-07-07T08:37:12.039Z,5979.38
2018-07-07T08:38:12.047Z,5968.13
2018-07-07T08:39:12.056Z,6063.75
2018-07-07T08:40:12.069Z,6052.50
2018-07-07T08:41:12.075Z,6041.25
2018-07-07T08:42:12.150Z,6035.63
2018-07-07T08:43:12.100Z,5940.00
2018-07-07T08:44:12.099Z,5855.63
2018-07-07T08:45:12.109Z,5658.75
2018-07-07T08:46:12.125Z,5310.00
2018-07-07T08:47:12.131Z,5523.75
2018-07-07T08:48:12.140Z,5883.75
2018-07-07T08:49:12.185Z,5445.00
2018-07-07T08:50:12.159Z,5332.50
2018-07-07T08:51:12.169Z,5557.50
2018-07-07T08:52:12.181Z,5973.75
2018-07-07T08:53:12.186Z,6541.88
2018-07-07T08:54:12.198Z,6845.63
2018-07-07T08:55:12.211Z,6744.38
2018-07-07T08:56:12.219Z,6553.13
2018-07-07T08:57:12.231Z,6654.38
2018-07-07T08:58:12.239Z,6710.63
2018-07-07T08:59:12.252Z,6693.75
2018-07-07T09:00:12.262Z,6834.38
2018-07-07T09:01:12.271Z,7020.00
2018-07-07T09:02:12.305Z,7104.38
2018-07-07T09:03:12.295Z,6631.88
2018-07-07T09:04:12.304Z,6300.00
2018-07-07T09:05:12.314Z,6553.13
2018-07-07T09:06:12.323Z,6958.13
2018-07-07T09:07:12.337Z,7076.25
2018-07-07T09:08:12.343Z,7014.38
2018-07-07T09:09:12.358Z,6401.25
2018-07-07T09:10:12.370Z,7239.38
2018-07-07T09:11:12.381Z,7335.00
2018-07-07T09:12:12.392Z,6401.25
2018-07-07T09:13:12.400Z,2913.75
2018-07-07T09:14:12.471Z,2823.75
2018-07-07T09:15:12.422Z,6828.75
2018-07-07T09:16:12.436Z,6913.13
2018-07-07T09:17:12.446Z,7284.38
2018-07-07T09:18:12.459Z,7436.25
2018-07-07T09:19:12.473Z,7177.50
2018-07-07T09:20:12.477Z,6260.63
2018-07-07T09:21:12.544Z,6063.75
2018-07-07T09:22:12.501Z,5951.25
2018-07-07T09:23:12.513Z,6277.50
2018-07-07T09:24:12.521Z,6165.00
2018-07-07T09:25:12.540Z,5956.88
2018-07-07T09:26:12.546Z,6063.75
2018-07-07T09:27:12.556Z,6547.50
2018-07-07T09:28:12.564Z,7036.88
2018-07-07T09:29:12.577Z,7081.88
2018-07-07T09:30:12.594Z,7183.13
2018-07-07T09:31:12.605Z,6693.75
2018-07-07T09:32:12.620Z,6350.63
2018-07-07T09:33:12.629Z,6345.00
2018-07-07T09:34:12.636Z,6271.88
2018-07-07T09:35:12.649Z,6592.50
2018-07-07T09:36:12.657Z,6811.88
2018-07-07T09:37:12.673Z,6896.25
2018-07-07T09:38:12.685Z,6901.88
2018-07-07T09:39:12.697Z,7160.63
2018-07-07T09:40:13.018Z,7357.50
2018-07-07T09:41:13.638Z,7233.75
2018-07-07T09:42:13.661Z,7121.25
2018-07-07T09:43:13.683Z,7076.25
2018-07-07T09:44:13.248Z,7245.00
2018-07-07T09:45:13.805Z,7335.00
2018-07-07T09:46:13.503Z,7121.25
2018-07-07T09:47:13.679Z,7076.25
2018-07-07T09:48:14.155Z,7194.38
2018-07-07T09:49:14.650Z,7138.13
2018-07-07T09:50:14.078Z,6868.13
2018-07-07T09:51:13.304Z,6795.00
2018-07-07T09:52:13.841Z,6682.50
2018-07-07T09:53:13.824Z,6609.38
2018-07-07T09:54:14.687Z,6620.63
2018-07-07T09:55:13.835Z,6750.00
2018-07-07T09:56:13.536Z,6733.13
2018-07-07T09:57:14.047Z,6294.38
2018-07-07T09:58:13.858Z,5928.75
2018-07-07T09:59:13.074Z,5754.38
2018-07-07T10:00:14.519Z,5782.50
2018-07-07T10:01:13.894Z,5850.00
2018-07-07T10:02:14.051Z,6052.50
2018-07-07T10:03:13.995Z,6401.25
2018-07-07T10:04:14.033Z,6097.50
2018-07-07T10:05:13.295Z,5866.88
2018-07-07T10:06:14.000Z,6423.75
2018-07-07T10:07:14.076Z,6969.38
2018-07-07T10:08:14.086Z,6913.13
2018-07-07T10:09:14.200Z,6688.13
2018-07-07T10:10:13.131Z,6738.75
2018-07-07T10:11:13.131Z,7093.13
2018-07-07T10:12:13.140Z,7155.00
2018-07-07T10:13:13.167Z,6705.00
2018-07-07T10:14:13.206Z,6378.75
2018-07-07T10:15:14.118Z,6620.63
2018-07-07T10:16:13.156Z,6834.38
2018-07-07T10:17:13.180Z,6766.88
2018-07-07T10:18:13.188Z,6631.88
2018-07-07T10:19:13.766Z,6485.63
2018-07-07T10:20:13.213Z,6322.50
2018-07-07T10:21:13.221Z,6221.25
2018-07-07T10:22:13.237Z,6699.38
2018-07-07T10:23:13.277Z,6789.38
2018-07-07T10:25:47.185Z,6406.88
2018-07-07T10:26:46.699Z,6744.38
2018-07-07T10:28:39.878Z,6744.38
2018-07-07T10:29:40.285Z,6946.88
2018-07-07T10:31:35.057Z,6862.50
2018-07-07T10:32:34.672Z,6615.00
2018-07-07T10:34:33.780Z,6283.13
2018-07-07T10:35:33.840Z,5956.88
2018-07-07T10:37:25.510Z,6316.88
2018-07-07T10:38:26.115Z,6502.50
2018-07-07T10:39:25.477Z,6480.00
2018-07-07T10:40:25.670Z,6586.88
2018-07-07T10:41:25.892Z,6913.13
2018-07-07T10:42:25.469Z,7014.38
2018-07-07T10:43:25.466Z,6750.00
2018-07-07T10:44:25.563Z,6564.38
2018-07-07T10:45:25.533Z,6705.00
2018-07-07T10:46:32.106Z,6648.75
2018-07-07T10:47:25.554Z,6468.75
2018-07-07T10:48:25.525Z,6553.13
2018-07-07T10:49:48.474Z,6648.75
2018-07-07T10:52:48.364Z,6305.63
